Main page
METAR-TAF:

METAR-TAF

Airports :

Seville Airport

Seville, Spain

latitude: 37-25N, longitude: 005-54W, elevation: 34 m

Current weather observation

The report was made 27 minutes ago, at 21:30 UTC
Wind 4 kt from the Southwest, varying between South and West/Southwest
Temperature 22°C
Humidity 43%
Pressure 1015 hPa
Visibility 10 km or more
no clouds below 1500 m and no cumulonimbus

METAR: LEZL 052130Z 23004KT 190V250 CAVOK 22/09 Q1015 NOSIG

Time: 23:57 (21:57 UTC)

Forecast

The report was made 1 hour and 57 minutes ago, at 20:00 UTC
Forecast valid from 05 at 21 UTC to 06 at 21 UTC
Wind 5 kt from the Southwest
Visibility 10 km or more
no clouds below 1500 m and no cumulonimbus

TAF: LEZL 052000Z 0521/0621 23005KT CAVOK TX31/0615Z TN13/0606Z

Weather observations and forecasts of more than 4000 airports (METAR and TAF reports).

The available stations are represented by yellow and red dots on the map.

Hover mouse over dot to see the name of the station.

Then click to see weather observations and forecasts.

To change the map : click on the green buttons with a black cross to zoom in, on the green button with a dash to zoom out, or on the green arrows for adjacent maps.


METAR-TAF: